Time;durP1;ratioP1;P1;durP2;ratioP2;P2;SDS_P1;SDS_P2;PMS_P1;PMS_P2;Temp;Humidity;BMP_temperature;BMP_pressure;BME280_temperature;BME280_humidity;BME280_pressure;Samples;Min_cycle;Max_cycle;Signal;HPM_P1;HPM_P2
2021/12/26 00:02:58;;;;;;;105.43;89.60;;;;;;;7.92;100.00;100388.06;1981626;71;39631;-74
2021/12/26 00:08:45;;;;;;;102.30;88.17;;;;;;;7.87;100.00;100382.02;1802618;78;86429;-73
2021/12/26 00:14:29;;;;;;;103.00;85.60;;;;;;;7.93;100.00;100375.35;1890355;74;86551;-74
2021/12/26 00:20:15;;;;;;;101.13;86.40;;;;;;;7.93;100.00;100390.56;1909421;72;86105;-74
2021/12/26 00:25:59;;;;;;;96.07;84.87;;;;;;;7.92;100.00;100386.13;1911535;72;86508;-74
2021/12/26 00:31:42;;;;;;;97.00;83.80;;;;;;;7.96;100.00;100382.28;1971630;69;86209;-75
2021/12/26 00:37:26;;;;;;;101.83;85.10;;;;;;;7.95;100.00;100370.39;1799928;78;86406;-74
2021/12/26 00:43:11;;;;;;;101.70;84.70;;;;;;;7.89;100.00;100366.52;1904003;73;85601;-74
2021/12/26 00:48:54;;;;;;;102.20;85.57;;;;;;;7.92;100.00;100374.24;1984475;71;39559;-74
2021/12/26 00:54:41;;;;;;;104.27;82.77;;;;;;;7.91;100.00;100375.38;1850524;76;86354;-75
2021/12/26 01:00:28;;;;;;;96.70;81.77;;;;;;;7.85;100.00;100373.70;1902916;73;86307;-74
2021/12/26 01:06:15;;;;;;;97.33;78.57;;;;;;;7.85;100.00;100367.62;1879978;75;86441;-74
2021/12/26 01:12:01;;;;;;;91.10;77.93;;;;;;;7.84;100.00;100365.13;1908949;72;86667;-74
2021/12/26 01:17:46;;;;;;;85.47;76.43;;;;;;;7.90;100.00;100375.92;1843190;70;40284;-74
2021/12/26 01:23:33;;;;;;;83.90;73.17;;;;;;;7.87;100.00;100364.05;1893353;74;85284;-74
2021/12/26 01:29:19;;;;;;;85.80;76.70;;;;;;;7.90;100.00;100358.50;1859276;75;86149;-74
2021/12/26 01:35:04;;;;;;;83.90;74.77;;;;;;;7.93;100.00;100357.38;1911934;73;86383;-74
2021/12/26 01:40:51;;;;;;;82.70;73.50;;;;;;;7.95;100.00;100352.96;1940459;71;39617;-74
2021/12/26 01:46:38;;;;;;;83.80;73.30;;;;;;;7.92;100.00;100344.66;1831433;76;86221;-73
2021/12/26 01:52:24;;;;;;;84.50;75.37;;;;;;;7.96;100.00;100347.72;1908393;73;86206;-74
2021/12/26 01:58:10;;;;;;;80.97;71.43;;;;;;;7.88;100.00;100344.94;1912682;74;86524;-74
2021/12/26 02:03:56;;;;;;;80.00;71.27;;;;;;;7.95;100.00;100339.14;1929726;71;39536;-74
2021/12/26 02:09:40;;;;;;;83.03;74.27;;;;;;;7.92;100.00;100334.98;1845134;76;86510;-74
2021/12/26 02:15:26;;;;;;;82.50;73.67;;;;;;;7.90;100.00;100335.83;1798884;77;86912;-74
2021/12/26 02:21:21;;;;;;;83.50;73.03;;;;;;;7.92;100.00;100331.38;1910265;74;85779;-74
2021/12/26 02:33:07;;;;;;;83.77;74.57;;;;;;;7.83;100.00;100321.45;1914842;73;86502;-74
2021/12/26 02:38:50;;;;;;;83.43;69.63;;;;;;;7.86;100.00;100315.37;1981191;71;39822;-74
2021/12/26 02:44:34;;;;;;;81.87;72.17;;;;;;;7.77;100.00;100309.59;1830558;76;86662;-74
2021/12/26 02:50:21;;;;;;;80.30;69.77;;;;;;;7.80;100.00;100309.57;1805108;77;86599;-73
2021/12/26 02:56:07;;;;;;;81.03;69.47;;;;;;;7.82;100.00;100301.01;1937560;72;86624;-74
2021/12/26 03:01:53;;;;;;;79.33;69.00;;;;;;;7.75;100.00;100300.73;1974248;71;39674;-74
2021/12/26 03:07:38;;;;;;;74.73;65.53;;;;;;;7.77;100.00;100292.17;1967841;72;86478;-74
2021/12/26 03:13:24;;;;;;;74.70;66.63;;;;;;;7.68;100.00;100292.47;1885634;74;85502;-74
2021/12/26 03:19:09;;;;;;;75.27;67.17;;;;;;;7.74;100.00;100299.66;1930099;73;86486;-74
2021/12/26 03:24:53;;;;;;;76.53;68.37;;;;;;;7.66;100.00;100295.50;1978391;71;39364;-74
2021/12/26 03:30:38;;;;;;;77.00;69.07;;;;;;;7.66;100.00;100301.58;1851194;76;86418;-74
2021/12/26 03:36:23;;;;;;;73.53;65.70;;;;;;;7.60;100.00;100303.55;1893060;74;86173;-74
2021/12/26 03:42:09;;;;;;;77.17;69.33;;;;;;;7.55;100.00;100301.33;1918669;74;86186;-74
2021/12/26 03:47:54;;;;;;;73.67;65.73;;;;;;;7.53;100.00;100296.66;1946566;71;39564;-74
2021/12/26 03:53:39;;;;;;;74.03;66.23;;;;;;;7.51;100.00;100296.92;1834916;76;86380;-74
2021/12/26 03:59:23;;;;;;;73.73;65.83;;;;;;;7.57;100.00;100288.88;1868236;75;86223;-74
2021/12/26 04:05:09;;;;;;;71.27;63.73;;;;;;;7.54;100.00;100285.30;1910985;73;86319;-74
2021/12/26 04:10:54;;;;;;;71.30;64.00;;;;;;;7.53;100.00;100279.49;1960105;71;39495;-74
2021/12/26 04:16:38;;;;;;;70.73;63.63;;;;;;;7.60;100.00;100275.08;1891334;75;86586;-74
2021/12/26 04:22:22;;;;;;;73.13;65.83;;;;;;;7.55;100.00;100273.70;1891856;74;86235;-74
2021/12/26 04:28:05;;;;;;;67.63;60.40;;;;;;;7.50;100.00;100265.41;1928933;73;86115;-74
2021/12/26 04:33:50;;;;;;;71.47;63.97;;;;;;;7.47;100.00;100266.81;1978184;71;39631;-74
2021/12/26 04:39:35;;;;;;;71.83;64.33;;;;;;;7.55;100.00;100259.88;1979314;71;86749;-74
2021/12/26 04:45:25;;;;;;;69.17;61.90;;;;;;;7.50;100.00;100255.74;1898831;73;86775;-74
2021/12/26 04:51:11;;;;;;;68.83;61.40;;;;;;;7.60;100.00;100251.58;1909370;73;85472;-74
2021/12/26 04:56:55;;;;;;;71.73;64.43;;;;;;;7.60;100.00;100241.91;1980453;70;39748;-74
2021/12/26 05:02:40;;;;;;;67.40;60.50;;;;;;;7.62;100.00;100231.39;1777574;79;162692;-74
2021/12/26 05:08:25;;;;;;;67.33;60.33;;;;;;;7.55;100.00;100233.08;1835569;77;86324;-74
2021/12/26 05:14:10;;;;;;;67.13;58.23;;;;;;;7.64;100.00;100231.95;1920402;71;86610;-74
2021/12/26 05:19:54;;;;;;;67.10;60.23;;;;;;;7.71;100.00;100228.33;1980104;71;39860;-74
2021/12/26 05:25:38;;;;;;;65.43;58.60;;;;;;;7.65;100.00;100239.97;1997457;70;85579;-74
2021/12/26 05:31:21;;;;;;;67.83;60.73;;;;;;;7.65;100.00;100235.83;1881696;74;86771;-74
2021/12/26 05:37:06;;;;;;;64.60;58.00;;;;;;;7.62;100.00;100235.53;1951778;71;86577;-74
2021/12/26 05:42:50;;;;;;;64.70;57.87;;;;;;;7.68;100.00;100228.89;1978739;71;39712;-74
2021/12/26 05:48:34;;;;;;;66.57;59.90;;;;;;;7.73;100.00;100242.16;1814492;76;86431;-74
2021/12/26 05:54:18;;;;;;;67.60;60.83;;;;;;;7.65;100.00;100233.61;1865498;75;86137;-74
2021/12/26 06:00:03;;;;;;;63.07;56.57;;;;;;;7.67;100.00;100225.30;1927372;73;86636;-74
2021/12/26 06:05:48;;;;;;;62.43;56.00;;;;;;;7.68;100.00;100222.81;1943470;71;39749;-74
2021/12/26 06:11:34;;;;;;;62.80;56.73;;;;;;;7.71;100.00;100219.48;1846857;76;86148;-74
2021/12/26 06:17:19;;;;;;;63.00;56.80;;;;;;;7.78;100.00;100209.52;1830033;76;85465;-74
2021/12/26 06:23:03;;;;;;;63.70;57.03;;;;;;;7.77;100.00;100213.39;1927767;73;86309;-73
2021/12/26 06:28:46;;;;;;;64.17;57.47;;;;;;;7.72;100.00;100209.25;1984863;71;39658;-74
2021/12/26 06:34:31;;;;;;;62.37;56.30;;;;;;;7.70;100.00;100215.05;1910115;73;85632;-74
2021/12/26 06:40:16;;;;;;;61.90;55.67;;;;;;;7.78;100.00;100210.91;1875822;73;86322;-73
2021/12/26 06:46:00;;;;;;;66.57;60.30;;;;;;;7.74;100.00;100205.66;1928442;71;86442;-75
2021/12/26 06:51:45;;;;;;;64.43;57.93;;;;;;;7.73;100.00;100215.89;1987442;71;39567;-74
2021/12/26 06:57:29;;;;;;;63.10;56.83;;;;;;;7.72;100.00;100212.02;1875763;74;86526;-74
2021/12/26 07:03:13;;;;;;;63.57;57.33;;;;;;;7.74;100.00;100205.09;1870767;75;86476;-74
2021/12/26 07:05:44;;;;;;;64.05;57.73;;;;;;;7.79;100.00;100215.30;1830790;75;936744;-74
2021/12/26 07:11:29;;;;;;;64.90;58.93;;;;;;;7.89;100.00;100217.20;1845499;75;85818;-74
2021/12/26 07:17:13;;;;;;;66.73;60.13;;;;;;;7.81;100.00;100212.27;1903651;74;86499;-74
2021/12/26 07:22:57;;;;;;;64.20;57.50;;;;;;;7.84;100.00;100215.28;1828483;77;86449;-74
2021/12/26 07:28:40;;;;;;;61.47;55.50;;;;;;;7.81;100.00;100219.17;1844496;76;86651;-74
2021/12/26 07:34:25;;;;;;;61.63;55.63;;;;;;;7.84;100.00;100218.59;1878104;75;86242;-74
2021/12/26 07:40:12;;;;;;;62.33;56.13;;;;;;;7.87;100.00;100208.38;1908958;72;86507;-75
2021/12/26 07:45:56;;;;;;;61.70;55.50;;;;;;;7.88;100.00;100205.31;1985517;71;39611;-75
2021/12/26 07:51:40;;;;;;;62.00;55.60;;;;;;;7.93;100.00;100198.38;1845615;76;86281;-74
2021/12/26 07:57:26;;;;;;;62.67;56.20;;;;;;;7.96;100.00;100200.57;1808749;78;86295;-75
2021/12/26 08:03:10;;;;;;;61.83;55.53;;;;;;;8.07;100.00;100202.19;1938362;72;86600;-77
2021/12/26 08:08:57;;;;;;;62.87;56.57;;;;;;;8.04;100.00;100201.39;1949375;71;39649;-76
2021/12/26 08:14:41;;;;;;;62.57;56.30;;;;;;;8.09;100.00;100212.40;1971832;69;86341;-76
2021/12/26 08:20:26;;;;;;;63.13;56.93;;;;;;;8.10;100.00;100224.29;1801292;78;86275;-74
2021/12/26 08:26:11;;;;;;;64.20;57.63;;;;;;;8.09;100.00;100237.84;1932760;72;86622;-76
2021/12/26 08:31:58;;;;;;;63.10;56.83;;;;;;;8.12;100.00;100243.66;1983976;71;39699;-75
2021/12/26 08:37:41;;;;;;;60.30;54.40;;;;;;;8.08;100.00;100243.13;1847198;76;85506;-76
2021/12/26 08:43:27;;;;;;;57.17;51.60;;;;;;;8.19;100.00;100244.17;1801590;78;86423;-75
2021/12/26 08:49:10;;;;;;;56.03;50.43;;;;;;;8.23;100.00;100240.27;1918451;74;85475;-76
2021/12/26 08:54:57;;;;;;;57.73;51.77;;;;;;;8.28;100.00;100244.40;1980626;71;39544;-77
2021/12/26 09:03:55;;;;;;;59.93;54.13;;;;;;;8.30;100.00;100255.23;1977970;71;39481;-76
2021/12/26 09:09:40;;;;;;;57.87;52.00;;;;;;;8.34;100.00;100252.99;1831999;76;85542;-73
2021/12/26 09:15:27;;;;;;;61.60;55.10;;;;;;;8.32;100.00;100265.44;1807113;78;86548;-75
2021/12/26 09:21:13;;;;;;;58.83;53.00;;;;;;;8.43;100.00;100261.52;1937466;72;86700;-74
2021/12/26 09:26:58;;;;;;;58.43;52.50;;;;;;;8.46;100.00;100261.77;1941814;73;86364;-75
2021/12/26 09:32:43;;;;;;;60.80;53.80;;;;;;;8.51;100.00;100259.53;1824573;75;85857;-75
2021/12/26 09:38:29;;;;;;;58.77;52.70;;;;;;;8.65;100.00;100267.45;1798943;78;86506;-75
2021/12/26 09:44:13;;;;;;;61.57;55.37;;;;;;;8.61;100.00;100269.14;1936868;73;86231;-73
2021/12/26 09:49:57;;;;;;;63.17;57.07;;;;;;;8.60;100.00;100271.08;1920237;73;86379;-73
2021/12/26 09:55:42;;;;;;;62.47;56.33;;;;;;;8.66;100.00;100267.73;1978612;71;85509;-75
2021/12/26 10:01:34;;;;;;;66.80;61.00;;;;;;;8.74;100.00;100262.97;1801375;78;86493;-74
2021/12/26 10:07:22;;;;;;;59.57;53.53;;;;;;;8.80;100.00;100265.98;1869416;75;85535;-73
2021/12/26 10:13:08;;;;;;;68.63;63.07;;;;;;;8.84;100.00;100267.05;1911480;74;85867;-74
2021/12/26 10:19:06;;;;;;;65.83;59.57;;;;;;;8.84;100.00;100269.00;1942604;73;86164;-76
2021/12/26 10:24:54;;;;;;;63.90;57.77;;;;;;;8.96;100.00;100259.20;1973464;70;39663;-77
2021/12/26 10:30:45;;;;;;;62.07;55.83;;;;;;;9.00;100.00;100264.44;1968927;71;86892;-75
2021/12/26 10:36:30;;;;;;;59.20;53.07;;;;;;;9.02;100.00;100264.16;1888003;74;86122;-70
2021/12/26 10:42:28;;;;;;;63.83;57.67;;;;;;;9.03;100.00;100257.47;1885894;74;86376;-77
2021/12/26 10:48:19;;;;;;;64.10;57.93;;;;;;;9.04;100.00;100251.66;1882708;74;86028;-73
2021/12/26 10:54:17;;;;;;;66.27;59.70;;;;;;;9.05;100.00;100245.56;1914218;73;86364;-73
2021/12/26 11:00:23;;;;;;;58.03;51.70;;;;;;;9.09;100.00;100242.48;1908113;73;86117;-74
2021/12/26 11:06:12;;;;;;;60.10;53.93;;;;;;;9.11;100.00;100241.64;1945800;72;86593;-77
2021/12/26 11:12:05;;;;;;;65.43;59.30;;;;;;;9.23;100.00;100237.09;1917024;73;86538;-73
2021/12/26 11:17:52;;;;;;;65.83;59.73;;;;;;;9.31;100.00;100240.62;1985229;71;39561;-72
2021/12/26 11:23:41;;;;;;;65.60;59.17;;;;;;;9.31;100.00;100242.84;1831244;76;86260;-72
2021/12/26 11:29:24;;;;;;;64.47;58.07;;;;;;;9.32;100.00;100236.73;1870958;75;86344;-73
2021/12/26 11:35:10;;;;;;;68.27;61.77;;;;;;;9.42;100.00;100238.00;1912929;74;86132;-73
2021/12/26 11:41:00;;;;;;;62.83;56.37;;;;;;;9.41;100.00;100218.36;1921009;71;39823;-74
2021/12/26 11:47:21;;;;;;;63.97;57.20;;;;;;;9.55;100.00;100219.30;1919677;73;86358;-73
2021/12/26 11:54:00;;;;;;;66.97;60.47;;;;;;;9.60;100.00;100219.24;1987340;71;39688;-72
2021/12/26 11:56:38;;;;;;;67.70;60.93;;;;;;;9.48;100.00;100229.91;1912908;73;934787;-73
2021/12/26 11:59:28;;;;;;;61.27;55.07;;;;;;;9.55;100.00;100228.44;1911632;73;938834;-71
2021/12/26 12:05:18;;;;;;;61.87;55.33;;;;;;;9.61;100.00;100216.74;1913299;74;86400;-73
2021/12/26 12:11:12;;;;;;;63.40;56.63;;;;;;;9.85;100.00;100216.73;1933033;73;86708;-75
2021/12/26 12:17:18;;;;;;;63.77;56.77;;;;;;;9.91;100.00;100208.07;1946507;72;86158;-72
2021/12/26 12:23:26;;;;;;;62.93;56.13;;;;;;;9.96;100.00;100209.39;1802540;78;86067;-72
2021/12/26 12:29:11;;;;;;;62.30;55.70;;;;;;;10.05;100.00;100210.95;1919980;72;86190;-72
2021/12/26 12:34:58;;;;;;;60.10;54.17;;;;;;;9.96;100.00;100205.79;1985308;71;39622;-75
2021/12/26 12:40:48;;;;;;;61.57;55.43;;;;;;;10.04;100.00;100203.19;1926249;71;39604;-73
2021/12/26 12:46:34;;;;;;;59.73;53.90;;;;;;;10.10;100.00;100204.51;1831650;76;86379;-74
2021/12/26 12:55:51;;;;;;;68.20;62.33;;;;;;;10.12;100.00;100198.08;1976203;69;39553;-74
2021/12/26 13:01:40;;;;;;;67.33;61.53;;;;;;;10.23;100.00;100203.78;1830366;76;86593;-74
2021/12/26 13:07:29;;;;;;;64.60;58.73;;;;;;;10.31;100.00;100189.26;1829296;76;85674;-71
2021/12/26 13:13:16;;;;;;;69.60;63.47;;;;;;;10.29;100.00;100190.11;1837838;77;86535;-72
2021/12/26 13:19:08;;;;;;;73.23;66.97;;;;;;;10.34;100.00;100193.64;1919767;72;86622;-73
2021/12/26 13:24:53;;;;;;;69.37;63.30;;;;;;;10.39;100.00;100196.35;1938730;71;39564;-74
2021/12/26 13:30:42;;;;;;;67.10;61.33;;;;;;;10.29;100.00;100199.82;1841711;75;86366;-74
2021/12/26 13:36:33;;;;;;;68.33;62.30;;;;;;;10.35;100.00;100191.70;1884552;74;86513;-73
2021/12/26 13:42:17;;;;;;;71.93;65.40;;;;;;;10.39;100.00;100183.86;1891285;75;86442;-73
2021/12/26 13:48:02;;;;;;;66.97;60.87;;;;;;;10.43;100.00;100191.02;1909261;74;86551;-74
2021/12/26 13:53:47;;;;;;;70.07;64.00;;;;;;;10.46;100.00;100180.13;1983500;71;39561;-73
2021/12/26 13:59:35;;;;;;;72.37;65.13;;;;;;;10.40;100.00;100186.05;1839292;76;86387;-74
2021/12/26 14:05:22;;;;;;;71.10;65.00;;;;;;;10.41;100.00;100186.31;1880729;73;86160;-72
2021/12/26 14:11:09;;;;;;;68.17;62.03;;;;;;;10.33;100.00;100176.72;1919330;72;86423;-73
2021/12/26 14:17:06;;;;;;;66.10;59.97;;;;;;;10.50;100.00;100184.52;1923234;73;86750;-74
2021/12/26 14:22:51;;;;;;;61.60;55.47;;;;;;;10.30;100.00;100174.55;1986247;71;39715;-74
2021/12/26 14:28:34;;;;;;;58.33;52.53;;;;;;;10.44;100.00;100178.77;1844585;76;86797;-74
2021/12/26 14:34:21;;;;;;;64.63;58.47;;;;;;;10.45;100.00;100179.03;1875245;75;86616;-74
2021/12/26 14:40:12;;;;;;;60.10;53.50;;;;;;;10.45;100.00;100181.25;1929175;73;85619;-72
2021/12/26 14:46:02;;;;;;;65.60;59.27;;;;;;;10.50;100.00;100169.24;1917594;73;86337;-72
2021/12/26 14:52:08;;;;;;;61.37;55.60;;;;;;;10.54;100.00;100168.90;1973957;71;40390;-71
2021/12/26 14:57:55;;;;;;;66.03;60.03;;;;;;;10.60;100.00;100169.66;1940214;71;39523;-72
2021/12/26 15:03:40;;;;;;;66.57;60.07;;;;;;;10.50;100.00;100174.80;1849989;76;86335;-74
2021/12/26 15:09:49;;;;;;;58.67;53.37;;;;;;;10.54;100.00;100168.08;1801284;78;85613;-72
2021/12/26 15:15:46;;;;;;;59.27;53.47;;;;;;;10.56;100.00;100173.61;1931931;71;39520;-74
2021/12/26 15:21:32;;;;;;;59.27;52.80;;;;;;;10.34;100.00;100170.05;1835791;76;86279;-73
2021/12/26 15:30:43;;;;;;;58.40;52.77;;;;;;;10.32;100.00;100176.45;1847587;76;86250;-71
2021/12/26 15:36:30;;;;;;;59.70;53.93;;;;;;;10.35;100.00;100176.43;1800813;78;86756;-74
2021/12/26 15:42:18;;;;;;;59.80;54.13;;;;;;;10.25;100.00;100180.17;1889900;73;85791;-74
2021/12/26 15:48:02;;;;;;;57.50;51.83;;;;;;;10.28;100.00;100178.17;1920971;74;86059;-73
2021/12/26 15:53:47;;;;;;;61.87;56.13;;;;;;;10.18;100.00;100181.67;1979084;71;39566;-73
2021/12/26 15:59:32;;;;;;;58.30;52.73;;;;;;;10.08;100.00;100179.83;1841386;76;85928;-71
2021/12/26 16:05:16;;;;;;;59.20;54.30;;;;;;;10.01;100.00;100176.02;1871510;75;86693;-71
2021/12/26 16:11:01;;;;;;;62.63;56.90;;;;;;;10.12;100.00;100184.21;1926067;71;86653;-78
2021/12/26 16:16:45;;;;;;;63.47;58.37;;;;;;;10.37;100.00;100180.55;1982284;71;40399;-76
2021/12/26 16:22:30;;;;;;;59.33;54.43;;;;;;;10.30;100.00;100179.27;1900262;74;86245;-79
2021/12/26 16:28:14;;;;;;;58.63;53.27;;;;;;;10.28;100.00;100178.17;1877832;74;86568;-70
2021/12/26 16:33:58;;;;;;;62.20;56.03;;;;;;;10.30;100.00;100183.44;1872349;72;85397;-79
2021/12/26 16:39:43;;;;;;;60.20;54.40;;;;;;;10.13;100.00;100197.80;1796511;78;86852;-76
2021/12/26 16:45:29;;;;;;;61.33;54.80;;;;;;;10.08;100.00;100202.02;1809657;78;86426;-81
2021/12/26 16:51:14;;;;;;;62.43;56.47;;;;;;;10.03;100.00;100189.59;1869073;75;85442;-70
2021/12/26 16:57:00;;;;;;;61.30;54.73;;;;;;;9.92;100.00;100178.38;1927146;73;86696;-77
2021/12/26 17:02:44;;;;;;;67.70;59.07;;;;;;;9.66;100.00;100187.58;1977695;71;39656;-77
2021/12/26 17:08:30;;;;;;;71.63;61.57;;;;;;;9.46;100.00;100184.46;1896660;74;86382;-77
2021/12/26 17:14:17;;;;;;;66.70;59.83;;;;;;;9.37;100.00;100194.53;1895192;74;86093;-78
2021/12/26 17:20:02;;;;;;;63.13;56.37;;;;;;;9.39;100.00;100190.92;1939306;72;86347;-80
2021/12/26 17:25:47;;;;;;;68.57;52.80;;;;;;;9.51;100.00;100198.83;1959699;71;39548;-69
2021/12/26 17:31:30;;;;;;;54.63;49.03;;;;;;;9.28;100.00;100191.33;1896674;74;86465;-73
2021/12/26 17:37:17;;;;;;;57.10;51.23;;;;;;;9.15;100.00;100198.39;1882165;74;86490;-83
2021/12/26 17:43:05;;;;;;;59.67;53.73;;;;;;;9.24;100.00;100204.92;1911325;74;85565;-71
2021/12/26 17:48:49;;;;;;;72.90;56.00;;;;;;;9.29;100.00;100198.50;1981655;71;40248;-70
2021/12/26 17:54:33;;;;;;;64.13;57.10;;;;;;;9.35;100.00;100200.11;1830603;76;86657;-78
2021/12/26 18:00:21;;;;;;;62.03;54.17;;;;;;;9.42;100.00;100198.64;1891965;75;86500;-69
2021/12/26 18:06:06;;;;;;;63.63;55.23;;;;;;;9.50;100.00;100193.84;1826102;77;86148;-82
2021/12/26 18:11:51;;;;;;;65.10;54.47;;;;;;;9.40;100.00;100198.12;1974389;71;39632;-74
2021/12/26 18:17:38;;;;;;;70.17;54.93;;;;;;;9.36;100.00;100183.20;1921616;72;86516;-76
2021/12/26 18:23:25;;;;;;;59.97;52.80;;;;;;;9.41;100.00;100184.51;1876308;74;86573;-75
2021/12/26 18:29:10;;;;;;;77.73;65.23;;;;;;;9.30;100.00;100181.59;1933685;73;86577;-75
2021/12/26 18:34:54;;;;;;;71.57;61.47;;;;;;;9.24;100.00;100179.18;1985744;71;39633;-75
2021/12/26 18:40:41;;;;;;;61.17;54.20;;;;;;;9.32;100.00;100182.14;1835615;76;86503;-75
2021/12/26 18:46:28;;;;;;;60.10;53.57;;;;;;;9.38;100.00;100180.95;1837019;76;85554;-76
2021/12/26 18:52:13;;;;;;;60.00;53.67;;;;;;;9.39;100.00;100171.52;1938654;72;86203;-81
2021/12/26 18:57:59;;;;;;;62.60;55.77;;;;;;;9.44;100.00;100172.86;1945310;71;85902;-75
2021/12/26 19:03:43;;;;;;;64.07;57.10;;;;;;;9.55;100.00;100168.84;1810229;78;86498;-75
2021/12/26 19:09:31;;;;;;;63.47;54.97;;;;;;;9.32;100.00;100173.83;1877745;75;86471;-88
2021/12/26 19:15:19;;;;;;;65.07;57.10;;;;;;;9.26;100.00;100176.92;1896262;73;86313;-75
2021/12/26 19:21:06;;;;;;;69.47;59.10;;;;;;;9.41;100.00;100184.51;1919739;72;85524;-79
2021/12/26 19:26:58;;;;;;;65.53;56.57;;;;;;;9.43;100.00;100171.20;1964775;72;85324;-77
2021/12/26 19:32:47;;;;;;;59.63;53.83;;;;;;;9.65;100.00;100175.39;1892808;74;86523;-75
2021/12/26 19:38:39;;;;;;;59.67;53.43;;;;;;;9.78;100.00;100178.83;1841755;75;86481;-76
2021/12/26 19:44:26;;;;;;;55.23;50.30;;;;;;;9.93;100.00;100166.14;1840794;76;86417;-80
2021/12/26 19:50:13;;;;;;;56.93;51.33;;;;;;;9.62;100.00;100160.18;1910094;73;86712;-81
2021/12/26 19:55:59;;;;;;;58.67;52.77;;;;;;;9.50;100.00;100161.95;1918446;74;85633;-78
2021/12/26 20:01:47;;;;;;;61.07;55.00;;;;;;;9.22;100.00;100150.92;1903722;74;85467;-83
2021/12/26 20:07:31;;;;;;;68.77;54.20;;;;;;;9.04;100.00;100148.33;1826865;76;86389;-76
2021/12/26 20:13:29;;;;;;;62.07;55.90;;;;;;;8.98;100.00;100141.20;1885954;73;86796;-76
2021/12/26 20:19:22;;;;;;;59.10;53.43;;;;;;;8.87;100.00;100146.00;1886121;73;86417;-82
2021/12/26 20:25:12;;;;;;;96.20;54.43;;;;;;;8.69;100.00;100152.25;1921715;73;86015;-77
2021/12/26 20:30:58;;;;;;;55.03;50.30;;;;;;;8.44;100.00;100152.45;1980299;71;39740;-77
2021/12/26 20:36:43;;;;;;;57.17;51.53;;;;;;;8.52;100.00;100136.06;1842855;76;86432;-76
2021/12/26 20:42:28;;;;;;;70.30;57.13;;;;;;;8.45;100.00;100137.52;1800871;78;86485;-75
2021/12/26 20:48:13;;;;;;;61.50;55.30;;;;;;;8.19;100.00;100132.69;1907825;73;86486;-75
2021/12/26 20:53:59;;;;;;;62.63;56.83;;;;;;;8.31;100.00;100137.89;1938343;73;86599;-72
2021/12/26 20:59:42;;;;;;;62.60;56.97;;;;;;;8.30;100.00;100127.38;1904651;74;86091;-74
2021/12/26 21:05:30;;;;;;;62.50;56.73;;;;;;;8.52;100.00;100149.90;1881272;75;86854;-74
2021/12/26 21:11:15;;;;;;;63.33;56.93;;;;;;;8.78;100.00;100142.76;1888966;75;85933;-78
2021/12/26 21:17:02;;;;;;;60.67;54.43;;;;;;;8.95;100.00;100127.37;1924177;72;85762;-74
2021/12/26 21:22:50;;;;;;;62.53;56.13;;;;;;;9.13;100.00;100132.73;1977570;71;39635;-74
2021/12/26 21:28:33;;;;;;;60.00;53.77;;;;;;;8.85;100.00;100129.42;1848894;76;86408;-76
2021/12/26 21:34:17;;;;;;;59.37;53.43;;;;;;;8.76;100.00;100119.54;1883517;75;85711;-75
2021/12/26 21:40:01;;;;;;;59.80;54.13;;;;;;;8.77;100.00;100126.70;1904061;72;86534;-83
2021/12/26 21:45:51;;;;;;;58.27;52.87;;;;;;;8.47;100.00;100140.24;1987812;71;39504;-76
2021/12/26 21:51:32;;;;;;;60.63;54.83;;;;;;;8.53;100.00;100138.27;1893392;74;86505;-79
2021/12/26 21:57:18;;;;;;;58.50;53.20;;;;;;;8.58;100.00;100128.55;1883651;75;85765;-74
2021/12/26 22:03:05;;;;;;;56.67;51.37;;;;;;;8.68;100.00;100126.50;1909101;72;86441;-73
2021/12/26 22:08:50;;;;;;;59.97;54.43;;;;;;;8.64;100.00;100123.25;1950282;71;39753;-74
2021/12/26 22:14:35;;;;;;;58.73;53.40;;;;;;;8.67;100.00;100103.28;1848643;76;86769;-72
2021/12/26 22:20:20;;;;;;;59.27;53.60;;;;;;;8.73;100.00;100120.09;1881545;74;86268;-72
2021/12/26 22:26:05;;;;;;;58.83;52.83;;;;;;;8.88;100.00;100119.97;1918486;74;85801;-76
2021/12/26 22:31:49;;;;;;;57.73;52.63;;;;;;;8.96;100.00;100124.04;1980390;71;39517;-75
2021/12/26 22:37:34;;;;;;;59.07;53.93;;;;;;;9.06;100.00;100132.27;1862504;76;86794;-78
2021/12/26 22:43:20;;;;;;;57.63;52.13;;;;;;;9.16;100.00;100121.05;1879468;74;86164;-75
2021/12/26 22:49:06;;;;;;;60.57;54.77;;;;;;;9.08;100.00;100123.08;1855147;76;86671;-75
2021/12/26 22:54:52;;;;;;;59.30;53.23;;;;;;;9.15;100.00;100123.58;1964264;71;39735;-77
2021/12/26 23:00:49;;;;;;;59.57;53.73;;;;;;;9.09;100.00;100117.81;1790668;79;86587;-73
2021/12/26 23:03:24;;;;;;;61.80;55.23;;;;;;;9.14;100.00;100118.59;1759227;79;933949;-77
2021/12/26 23:05:54;;;;;;;62.07;56.07;;;;;;;9.07;100.00;100108.98;1747545;79;937930;-73
2021/12/26 23:08:25;;;;;;;61.60;55.60;;;;;;;9.03;100.00;100117.03;1759208;80;935700;-76
2021/12/26 23:10:57;;;;;;;62.97;56.90;;;;;;;9.03;100.00;100107.34;1747643;79;937654;-74
2021/12/26 23:13:29;;;;;;;60.83;54.90;;;;;;;9.03;100.00;100110.11;1759332;79;936014;-74
2021/12/26 23:19:13;;;;;;;59.37;53.30;;;;;;;9.09;100.00;100087.34;1938911;72;86294;-74
2021/12/26 23:24:59;;;;;;;59.90;53.97;;;;;;;8.99;100.00;100083.28;1948916;73;86472;-73
2021/12/26 23:30:43;;;;;;;62.53;56.37;;;;;;;9.10;100.00;100096.75;1850808;76;86490;-72
2021/12/26 23:36:28;;;;;;;64.77;57.90;;;;;;;9.14;100.00;100090.89;1808871;78;85641;-75
2021/12/26 23:42:15;;;;;;;61.83;55.33;;;;;;;9.10;100.00;100096.75;1907467;73;85525;-74
2021/12/26 23:48:00;;;;;;;60.37;54.00;;;;;;;9.08;100.00;100098.15;1906803;72;85479;-72
2021/12/26 23:53:50;;;;;;;62.57;54.97;;;;;;;9.13;100.00;100096.16;1876907;74;86056;-82
2021/12/26 23:59:33;;;;;;;68.50;54.40;;;;;;;9.14;100.00;100083.13;1862358;76;86329;-73
